Time;durP1;ratioP1;P1;durP2;ratioP2;P2;SDS_P1;SDS_P2;PMS_P1;PMS_P2;Temp;Humidity;BMP_temperature;BMP_pressure;BME280_temperature;BME280_humidity;BME280_pressure;Samples;Min_cycle;Max_cycle;Signal;HPM_P1;HPM_P2
2022/01/25 00:10:41;;;;;;;51.83;25.95;;;6.20;99.90;;;;;;5054249;28;20131;-71
2022/01/25 00:24:23;;;;;;;49.17;26.42;;;6.20;99.90;;;;;;5052779;28;20055;-72
2022/01/25 00:27:07;;;;;;;49.92;24.40;;;6.20;99.90;;;;;;5052808;28;20021;-69
2022/01/25 00:32:15;;;;;;;51.63;24.50;;;6.10;99.90;;;;;;5053744;28;20052;-71
2022/01/25 00:34:41;;;;;;;49.15;24.30;;;6.20;99.90;;;;;;5052450;28;20069;-69
2022/01/25 00:37:06;;;;;;;54.13;27.40;;;6.10;99.90;;;;;;5052423;28;20053;-69
2022/01/25 00:39:32;;;;;;;50.50;25.55;;;6.20;99.90;;;;;;5054807;28;20114;-70
2022/01/25 00:41:58;;;;;;;50.60;24.60;;;6.20;99.90;;;;;;5052254;28;20041;-70
2022/01/25 00:44:24;;;;;;;50.20;25.10;;;6.20;99.90;;;;;;5053575;28;20021;-71
2022/01/25 00:46:50;;;;;;;54.33;27.00;;;6.20;99.90;;;;;;5052864;28;20029;-69
2022/01/25 00:49:26;;;;;;;53.00;26.23;;;6.10;99.90;;;;;;5061467;28;20068;-71
2022/01/25 00:56:47;;;;;;;52.85;25.25;;;6.20;99.90;;;;;;5053278;28;20512;-70
2022/01/25 00:59:15;;;;;;;50.30;24.30;;;6.20;99.90;;;;;;5060902;28;20021;-72
2022/01/25 01:01:42;;;;;;;50.30;24.63;;;6.20;99.90;;;;;;5055161;28;20077;-69
2022/01/25 01:04:08;;;;;;;48.03;24.05;;;6.20;99.90;;;;;;5070372;28;20276;-72
2022/01/25 01:06:34;;;;;;;51.92;25.23;;;6.20;99.90;;;;;;5070585;28;20028;-69
2022/01/25 01:09:00;;;;;;;50.42;23.67;;;6.20;99.90;;;;;;5071848;28;20028;-71
2022/01/25 01:11:34;;;;;;;53.72;24.65;;;6.10;99.90;;;;;;5055850;28;20033;-71
2022/01/25 01:43:38;;;;;;;59.63;26.50;;;6.20;99.90;;;;;;5002748;28;20041;-72
2022/01/25 01:51:21;;;;;;;55.75;26.55;;;6.20;99.90;;;;;;5057591;28;20072;-73
2022/01/25 01:53:47;;;;;;;60.30;27.33;;;6.20;99.90;;;;;;5074772;28;20159;-70
2022/01/25 01:56:13;;;;;;;61.03;26.90;;;6.20;99.90;;;;;;5059583;28;20120;-70
2022/01/25 01:58:40;;;;;;;53.08;25.40;;;6.30;99.90;;;;;;5071482;28;20032;-71
2022/01/25 02:01:10;;;;;;;56.25;26.27;;;6.20;99.90;;;;;;5059633;28;20036;-70
2022/01/25 02:03:36;;;;;;;58.33;27.77;;;6.20;99.90;;;;;;5072159;28;20020;-70
2022/01/25 02:06:02;;;;;;;59.40;26.17;;;6.20;99.90;;;;;;5057039;28;20051;-70
2022/01/25 02:08:28;;;;;;;54.60;25.58;;;6.20;99.90;;;;;;5071319;28;20029;-72
2022/01/25 02:10:53;;;;;;;57.53;26.42;;;6.20;99.90;;;;;;5060016;28;20035;-71
2022/01/25 02:13:19;;;;;;;57.30;26.38;;;6.20;99.90;;;;;;5068089;28;20135;-72
2022/01/25 02:15:47;;;;;;;54.28;25.73;;;6.20;99.90;;;;;;5058080;28;20067;-70
2022/01/25 02:23:43;;;;;;;55.95;26.50;;;6.20;99.90;;;;;;5074281;28;20090;-71
2022/01/25 02:26:10;;;;;;;58.65;25.42;;;6.10;99.90;;;;;;5072980;28;20390;-70
2022/01/25 02:28:42;;;;;;;58.38;28.23;;;6.10;99.90;;;;;;5054715;28;20025;-67
2022/01/25 02:31:11;;;;;;;56.40;26.38;;;6.10;99.90;;;;;;5054619;28;20463;-69
2022/01/25 02:33:37;;;;;;;54.75;26.20;;;6.10;99.90;;;;;;5054495;28;20091;-73
2022/01/25 02:36:09;;;;;;;56.35;27.02;;;6.20;99.90;;;;;;5054433;28;20021;-70
2022/01/25 02:38:35;;;;;;;55.38;26.30;;;6.20;99.90;;;;;;5054684;28;20031;-69
2022/01/25 02:41:02;;;;;;;57.83;27.10;;;6.20;99.90;;;;;;5054473;28;20095;-69
2022/01/25 02:43:28;;;;;;;55.17;25.88;;;6.10;99.90;;;;;;5054365;28;20021;-71
2022/01/25 02:48:56;;;;;;;57.28;26.10;;;6.20;99.90;;;;;;5054043;28;20052;-71
2022/01/25 02:51:28;;;;;;;54.20;26.50;;;6.20;99.90;;;;;;5054000;28;20033;-71
2022/01/25 02:53:54;;;;;;;51.95;25.83;;;6.20;99.90;;;;;;5054291;28;20029;-72
2022/01/25 02:56:20;;;;;;;52.90;23.70;;;6.20;99.90;;;;;;5054389;28;20508;-72
2022/01/25 02:58:46;;;;;;;50.05;24.52;;;6.20;99.90;;;;;;5054025;28;20025;-71
2022/01/25 03:01:12;;;;;;;49.60;24.67;;;6.20;99.90;;;;;;5036059;28;20028;-69
2022/01/25 03:03:38;;;;;;;50.28;23.90;;;6.20;99.90;;;;;;5054058;28;20094;-70
2022/01/25 03:06:05;;;;;;;53.00;24.52;;;6.20;99.90;;;;;;5053958;28;20021;-70
2022/01/25 03:08:31;;;;;;;52.22;24.42;;;6.20;99.90;;;;;;5054077;28;20557;-70
2022/01/25 03:10:56;;;;;;;51.83;23.80;;;6.10;99.90;;;;;;5054004;28;20108;-71
2022/01/25 03:13:28;;;;;;;52.42;24.10;;;6.10;99.90;;;;;;5053656;28;20052;-72
2022/01/25 03:15:59;;;;;;;61.72;26.13;;;6.10;99.90;;;;;;5053937;28;20021;-70
2022/01/25 03:18:39;;;;;;;53.78;24.92;;;6.10;99.90;;;;;;5053765;28;20102;-71
2022/01/25 03:21:32;;;;;;;52.92;25.25;;;6.10;99.90;;;;;;5053734;28;20021;-69
2022/01/25 03:23:59;;;;;;;51.00;23.15;;;6.10;99.90;;;;;;5053546;28;20555;-69
2022/01/25 03:26:25;;;;;;;52.85;25.35;;;6.00;99.90;;;;;;5053610;28;20020;-71
2022/01/25 03:28:53;;;;;;;52.45;24.83;;;6.00;99.90;;;;;;5053364;28;20055;-70
2022/01/25 03:31:19;;;;;;;49.10;23.33;;;6.00;99.90;;;;;;5053445;28;20489;-68
2022/01/25 03:33:45;;;;;;;50.83;25.17;;;6.00;99.90;;;;;;5053300;28;20064;-71
2022/01/25 03:36:12;;;;;;;48.05;23.27;;;6.00;99.90;;;;;;5053591;28;20036;-71
2022/01/25 03:38:40;;;;;;;52.38;23.98;;;6.10;99.90;;;;;;5053524;28;20132;-71
2022/01/25 03:41:09;;;;;;;53.03;25.02;;;6.10;99.90;;;;;;5053386;28;20033;-70
2022/01/25 03:43:36;;;;;;;53.70;25.95;;;6.10;99.90;;;;;;5053224;28;20103;-70
2022/01/25 03:51:33;;;;;;;50.80;25.80;;;6.10;99.90;;;;;;5053106;28;20040;-72
2022/01/25 03:53:59;;;;;;;51.95;24.63;;;6.10;99.90;;;;;;5052954;28;20041;-71
2022/01/25 03:56:26;;;;;;;56.55;25.42;;;6.10;99.90;;;;;;5053112;28;20110;-70
2022/01/25 03:58:52;;;;;;;52.35;25.40;;;6.10;99.90;;;;;;5052970;28;20040;-71
2022/01/25 04:01:18;;;;;;;47.30;22.85;;;6.10;99.90;;;;;;5052821;28;20033;-69
2022/01/25 04:03:56;;;;;;;49.30;24.05;;;6.10;99.90;;;;;;5063456;28;20028;-72
2022/01/25 04:06:22;;;;;;;47.58;23.85;;;6.10;99.90;;;;;;5072952;28;20033;-69
2022/01/25 04:08:48;;;;;;;47.55;22.88;;;6.10;99.90;;;;;;5072903;28;20025;-70
2022/01/25 04:11:13;;;;;;;45.50;22.33;;;6.10;99.90;;;;;;5072707;28;20025;-69
2022/01/25 04:13:39;;;;;;;49.03;24.77;;;6.10;99.90;;;;;;5072430;28;20464;-69
2022/01/25 04:16:12;;;;;;;54.75;25.85;;;6.10;99.90;;;;;;5072422;28;20086;-72
2022/01/25 04:26:48;;;;;;;50.25;24.20;;;6.10;99.90;;;;;;5073027;28;20493;-72
2022/01/25 04:29:14;;;;;;;46.92;23.77;;;6.20;99.90;;;;;;5072567;28;20028;-72
2022/01/25 04:31:41;;;;;;;49.20;24.58;;;6.20;99.90;;;;;;5072290;28;20032;-71
2022/01/25 04:50:51;;;;;;;54.38;24.63;;;6.10;99.90;;;;;;5072407;28;20118;-71
2022/01/25 04:53:44;;;;;;;46.38;23.30;;;6.10;99.90;;;;;;5072137;28;20036;-72
2022/01/25 04:56:07;;;;;;;46.42;23.30;;;6.10;99.90;;;;;;5071815;28;20055;-71
2022/01/25 04:58:47;;;;;;;47.55;22.00;;;6.10;99.90;;;;;;5074482;28;20025;-72
2022/01/25 05:01:13;;;;;;;47.40;22.77;;;6.10;99.90;;;;;;5076493;28;20040;-71
2022/01/25 05:04:04;;;;;;;49.33;24.08;;;6.10;99.90;;;;;;5065996;28;20025;-70
2022/01/25 05:06:26;;;;;;;47.47;22.50;;;6.10;99.90;;;;;;5055798;28;20033;-71
2022/01/25 05:08:55;;;;;;;46.45;22.30;;;6.00;99.90;;;;;;5056217;28;20017;-71
2022/01/25 05:11:31;;;;;;;45.53;22.60;;;6.00;99.90;;;;;;5056104;28;20025;-71
2022/01/25 05:16:34;;;;;;;48.55;22.63;;;6.00;99.90;;;;;;5056012;28;20025;-70
2022/01/25 05:19:22;;;;;;;46.38;23.83;;;6.00;99.90;;;;;;5055809;28;20013;-71
2022/01/25 05:22:05;;;;;;;45.20;23.45;;;6.00;99.90;;;;;;5056139;28;20036;-72
2022/01/25 05:24:41;;;;;;;40.30;20.50;;;6.00;99.90;;;;;;5055914;28;20100;-70
2022/01/25 05:27:09;;;;;;;39.65;20.17;;;6.00;99.90;;;;;;5055367;28;20402;-70
2022/01/25 05:29:35;;;;;;;39.63;20.50;;;6.00;99.90;;;;;;5055951;28;20021;-69
2022/01/25 05:32:01;;;;;;;44.15;21.40;;;6.00;99.90;;;;;;5055489;28;20029;-70
2022/01/25 05:34:27;;;;;;;43.70;21.63;;;6.00;99.90;;;;;;5037616;28;20063;-70
2022/01/25 05:36:53;;;;;;;42.88;21.77;;;6.00;99.90;;;;;;5055867;28;20044;-68
2022/01/25 05:39:24;;;;;;;40.25;20.38;;;6.00;99.90;;;;;;5055608;28;20032;-71
2022/01/25 05:42:00;;;;;;;45.95;22.42;;;6.00;99.90;;;;;;5055400;28;20112;-71
2022/01/25 05:49:24;;;;;;;37.78;19.73;;;6.00;99.90;;;;;;5055210;28;20410;-71
2022/01/25 05:51:51;;;;;;;43.92;22.10;;;6.00;99.90;;;;;;5055571;28;20087;-70
2022/01/25 05:54:16;;;;;;;49.15;24.05;;;6.00;99.90;;;;;;5054856;28;20040;-71
2022/01/25 05:56:42;;;;;;;47.20;22.95;;;6.00;99.90;;;;;;5054980;28;20033;-71
2022/01/25 05:59:08;;;;;;;44.80;22.75;;;6.00;99.90;;;;;;5055389;28;20044;-70
2022/01/25 06:01:35;;;;;;;44.38;21.25;;;6.00;99.90;;;;;;5055346;28;20027;-70
2022/01/25 06:04:01;;;;;;;45.88;21.98;;;6.00;99.90;;;;;;5068124;28;20040;-71
2022/01/25 06:06:29;;;;;;;42.08;21.17;;;6.00;99.90;;;;;;5075165;28;20021;-71
2022/01/25 06:08:55;;;;;;;45.08;21.85;;;6.00;99.90;;;;;;5074693;28;20020;-71
2022/01/25 06:11:21;;;;;;;44.45;21.42;;;5.90;99.90;;;;;;5075080;28;20036;-71
2022/01/25 06:13:47;;;;;;;47.00;21.42;;;5.90;99.90;;;;;;5075074;28;20484;-68
2022/01/25 06:16:13;;;;;;;44.38;21.33;;;5.90;99.90;;;;;;5075050;28;20032;-69
2022/01/25 06:18:39;;;;;;;41.33;21.08;;;5.90;99.90;;;;;;5074961;28;20032;-69
2022/01/25 06:21:04;;;;;;;42.42;20.27;;;5.90;99.90;;;;;;5075142;28;20378;-71
2022/01/25 06:23:30;;;;;;;41.53;22.23;;;5.90;99.90;;;;;;5074633;28;20029;-69
2022/01/25 06:25:56;;;;;;;39.58;19.25;;;5.90;99.90;;;;;;5075100;28;20054;-69
2022/01/25 06:28:21;;;;;;;44.30;21.38;;;5.90;99.90;;;;;;5074876;28;20442;-70
2022/01/25 06:30:47;;;;;;;42.00;21.05;;;5.90;99.90;;;;;;5074812;28;20426;-68
2022/01/25 06:33:12;;;;;;;45.90;22.50;;;5.90;99.90;;;;;;5074793;28;20519;-71
2022/01/25 06:35:39;;;;;;;42.42;20.98;;;5.90;99.90;;;;;;5071524;28;20048;-70
2022/01/25 06:38:05;;;;;;;44.85;21.52;;;6.00;99.90;;;;;;5054148;28;20021;-72
2022/01/25 06:40:31;;;;;;;42.28;21.20;;;6.00;99.90;;;;;;5071107;28;20542;-69
2022/01/25 06:42:56;;;;;;;44.08;21.83;;;6.10;99.90;;;;;;5059102;28;20493;-70
2022/01/25 06:45:24;;;;;;;42.58;21.77;;;6.10;99.90;;;;;;5055234;28;20043;-70
2022/01/25 06:47:51;;;;;;;42.78;21.05;;;6.10;99.90;;;;;;5074443;28;20020;-71
2022/01/25 06:50:18;;;;;;;43.00;21.75;;;6.10;99.90;;;;;;5072655;28;20470;-71
2022/01/25 06:52:45;;;;;;;48.25;23.52;;;6.20;99.90;;;;;;5074186;28;20028;-72
2022/01/25 06:55:13;;;;;;;46.20;22.02;;;6.20;99.90;;;;;;5074041;28;20040;-70
2022/01/25 06:57:39;;;;;;;45.17;22.30;;;6.20;99.90;;;;;;5063175;28;20106;-70
2022/01/25 07:00:12;;;;;;;47.75;23.85;;;6.10;99.90;;;;;;5058032;28;20067;-71
2022/01/25 07:02:37;;;;;;;45.58;22.23;;;6.10;99.90;;;;;;5053478;28;20036;-72
2022/01/25 07:05:04;;;;;;;45.42;22.80;;;6.10;99.90;;;;;;5052524;28;20626;-71
2022/01/25 07:07:30;;;;;;;43.05;21.20;;;6.10;99.90;;;;;;5033851;28;20068;-71
2022/01/25 07:09:56;;;;;;;45.40;22.10;;;6.10;99.90;;;;;;5056070;28;20064;-69
2022/01/25 07:12:22;;;;;;;43.08;21.95;;;6.00;99.90;;;;;;5053233;28;20025;-69
2022/01/25 07:14:48;;;;;;;42.15;21.13;;;6.00;99.90;;;;;;5053865;28;20041;-70
2022/01/25 07:17:14;;;;;;;43.70;20.83;;;5.90;99.90;;;;;;5054135;28;20060;-71
2022/01/25 07:19:39;;;;;;;44.22;21.42;;;5.90;99.90;;;;;;5053670;28;20072;-71
2022/01/25 07:22:05;;;;;;;43.08;21.25;;;5.90;99.90;;;;;;5066566;28;20029;-69
2022/01/25 07:24:31;;;;;;;45.95;22.27;;;5.90;99.90;;;;;;5053426;28;20093;-71
2022/01/25 07:26:57;;;;;;;46.00;23.35;;;5.90;99.90;;;;;;5053229;28;20500;-69
2022/01/25 07:29:22;;;;;;;50.20;23.73;;;6.00;99.90;;;;;;5053454;28;20025;-69
2022/01/25 07:31:48;;;;;;;44.92;22.27;;;6.00;99.90;;;;;;5053471;28;20355;-71
2022/01/25 07:34:14;;;;;;;45.03;22.75;;;6.00;99.90;;;;;;5052990;28;20398;-72
2022/01/25 07:36:42;;;;;;;42.22;20.50;;;6.00;99.90;;;;;;5053163;28;20079;-71
2022/01/25 07:39:09;;;;;;;46.60;22.52;;;6.00;99.90;;;;;;5053274;28;20462;-71
2022/01/25 07:41:35;;;;;;;46.15;23.20;;;5.90;99.90;;;;;;5035148;28;20040;-68
2022/01/25 07:44:01;;;;;;;47.28;22.85;;;6.00;99.90;;;;;;5053254;28;20455;-69
2022/01/25 07:46:26;;;;;;;49.97;23.75;;;6.00;99.90;;;;;;5052872;28;20029;-70
2022/01/25 07:48:52;;;;;;;46.30;22.95;;;6.00;99.90;;;;;;5050918;28;20085;-70
2022/01/25 07:51:18;;;;;;;40.42;20.95;;;6.00;99.90;;;;;;5051117;28;20024;-72
2022/01/25 07:53:44;;;;;;;41.83;21.15;;;6.00;99.90;;;;;;5050888;28;20044;-69
2022/01/25 07:56:10;;;;;;;45.33;22.20;;;6.00;99.90;;;;;;5051299;28;20639;-68
2022/01/25 07:58:36;;;;;;;43.90;20.52;;;6.00;99.90;;;;;;5050884;28;20029;-71
2022/01/25 08:01:03;;;;;;;41.90;21.17;;;6.00;99.90;;;;;;5051920;28;20028;-70
2022/01/25 08:03:29;;;;;;;45.55;22.58;;;6.00;99.90;;;;;;5051191;28;20028;-70
2022/01/25 08:05:55;;;;;;;44.95;22.00;;;6.00;99.90;;;;;;5051850;28;20033;-72
2022/01/25 08:08:20;;;;;;;43.75;21.67;;;6.00;99.90;;;;;;5053285;28;20043;-70
2022/01/25 08:10:46;;;;;;;43.30;21.88;;;6.00;99.90;;;;;;5052610;28;20025;-71
2022/01/25 08:13:11;;;;;;;45.05;22.15;;;6.10;99.90;;;;;;5053187;28;20460;-70
2022/01/25 08:15:37;;;;;;;44.25;22.17;;;6.10;99.90;;;;;;5051763;28;20036;-71
2022/01/25 08:18:03;;;;;;;42.22;20.67;;;6.10;99.90;;;;;;5049084;28;20029;-69
2022/01/25 08:20:28;;;;;;;43.72;22.08;;;6.20;99.90;;;;;;5050305;28;20554;-70
2022/01/25 08:22:54;;;;;;;47.42;21.88;;;6.20;99.90;;;;;;5052922;28;20036;-72
2022/01/25 08:25:20;;;;;;;45.35;23.50;;;6.20;99.90;;;;;;5052779;28;20024;-71
2022/01/25 08:27:47;;;;;;;44.28;21.60;;;6.20;99.90;;;;;;5034583;28;20124;-70
2022/01/25 08:30:13;;;;;;;49.25;24.02;;;6.20;99.90;;;;;;5052536;28;20163;-70
2022/01/25 08:32:38;;;;;;;47.67;23.00;;;6.20;99.90;;;;;;5051945;28;20040;-71
2022/01/25 08:35:04;;;;;;;49.17;22.90;;;6.20;99.90;;;;;;5052461;28;20032;-70
2022/01/25 08:37:30;;;;;;;43.42;22.42;;;6.20;99.90;;;;;;5052239;28;20025;-72
2022/01/25 08:39:56;;;;;;;46.03;22.42;;;6.20;99.90;;;;;;5052637;28;20497;-71
2022/01/25 08:42:21;;;;;;;46.92;22.33;;;6.20;99.90;;;;;;5052915;28;20025;-70
2022/01/25 08:44:47;;;;;;;46.95;22.05;;;6.10;99.90;;;;;;5055414;28;20032;-69
2022/01/25 08:47:12;;;;;;;49.33;24.90;;;6.10;99.90;;;;;;5053966;28;20475;-69
2022/01/25 08:49:39;;;;;;;45.83;22.55;;;6.10;99.90;;;;;;5054129;28;20394;-71
2022/01/25 08:52:06;;;;;;;45.70;21.27;;;6.10;99.90;;;;;;5051034;28;20025;-69
2022/01/25 08:54:32;;;;;;;42.28;21.40;;;6.10;99.90;;;;;;5050820;28;20068;-70
2022/01/25 08:56:57;;;;;;;50.72;23.27;;;6.10;99.90;;;;;;5053442;28;20031;-69
2022/01/25 08:59:23;;;;;;;48.47;24.13;;;6.10;99.90;;;;;;5051675;28;20037;-69
2022/01/25 09:01:49;;;;;;;46.17;22.88;;;6.10;99.90;;;;;;5051960;28;20025;-72
2022/01/25 09:04:15;;;;;;;44.67;22.20;;;6.20;99.90;;;;;;5059121;28;20025;-68
2022/01/25 09:06:41;;;;;;;45.10;22.45;;;6.20;99.90;;;;;;5056669;28;20120;-72
2022/01/25 09:09:09;;;;;;;44.35;23.23;;;6.20;99.90;;;;;;5052690;28;20021;-72
2022/01/25 09:11:41;;;;;;;45.92;22.85;;;6.20;99.90;;;;;;5036760;28;20021;-70
2022/01/25 09:14:07;;;;;;;43.35;22.33;;;6.20;99.90;;;;;;5050521;28;20078;-71
2022/01/25 09:16:34;;;;;;;45.22;22.17;;;6.30;99.90;;;;;;5047731;28;21318;-71
2022/01/25 09:18:59;;;;;;;50.13;22.90;;;6.30;99.90;;;;;;5050901;28;20045;-71
2022/01/25 09:21:25;;;;;;;43.33;21.10;;;6.30;99.90;;;;;;5050749;28;20029;-73
2022/01/25 09:23:51;;;;;;;48.72;22.80;;;6.40;99.90;;;;;;5049052;28;20502;-69
2022/01/25 09:26:17;;;;;;;45.83;23.42;;;6.40;99.90;;;;;;5051584;28;20021;-71
2022/01/25 09:28:43;;;;;;;47.35;23.63;;;6.50;99.90;;;;;;5050668;28;20116;-68
2022/01/25 09:31:09;;;;;;;47.28;21.80;;;6.50;99.90;;;;;;5050997;28;20044;-71
2022/01/25 09:33:35;;;;;;;45.25;23.52;;;6.50;99.90;;;;;;5051487;28;20033;-68
2022/01/25 09:36:00;;;;;;;51.03;23.80;;;6.50;99.90;;;;;;5052025;28;20052;-72
2022/01/25 09:38:26;;;;;;;52.65;23.23;;;6.50;99.90;;;;;;5051560;28;20040;-72
2022/01/25 09:40:53;;;;;;;47.03;23.83;;;6.50;99.90;;;;;;5051924;28;20025;-71
2022/01/25 09:43:21;;;;;;;47.72;23.95;;;6.50;99.90;;;;;;5033830;28;20036;-69
2022/01/25 09:45:47;;;;;;;46.90;23.80;;;6.50;99.90;;;;;;5055031;28;20075;-69
2022/01/25 09:48:14;;;;;;;47.28;23.35;;;6.50;99.90;;;;;;5054892;28;20084;-71
2022/01/25 09:50:39;;;;;;;48.47;23.05;;;6.50;99.90;;;;;;5055134;28;20029;-69
2022/01/25 09:53:07;;;;;;;42.55;20.95;;;6.50;99.90;;;;;;5055359;28;20029;-72
2022/01/25 09:55:36;;;;;;;45.80;22.70;;;6.50;99.90;;;;;;5055123;28;20036;-72
2022/01/25 09:58:02;;;;;;;46.65;22.65;;;6.50;99.90;;;;;;5054644;28;20025;-72
2022/01/25 10:00:29;;;;;;;44.38;21.27;;;6.50;99.90;;;;;;5054755;28;20013;-70
2022/01/25 10:03:23;;;;;;;46.55;22.95;;;6.50;99.90;;;;;;5054813;28;20112;-69
2022/01/25 10:05:51;;;;;;;40.45;19.85;;;6.50;99.90;;;;;;5055028;28;20036;-69
2022/01/25 10:08:20;;;;;;;41.08;19.13;;;6.50;99.90;;;;;;5054522;28;20040;-71
2022/01/25 10:10:54;;;;;;;42.72;19.40;;;6.60;99.90;;;;;;5037088;28;20029;-70
2022/01/25 10:13:31;;;;;;;45.65;21.70;;;6.60;99.90;;;;;;5054452;28;20025;-70
2022/01/25 10:16:05;;;;;;;46.72;22.58;;;6.70;99.90;;;;;;5054773;28;20026;-70
2022/01/25 10:18:49;;;;;;;47.13;21.35;;;6.70;99.90;;;;;;5054894;28;20074;-70
2022/01/25 10:21:24;;;;;;;44.88;20.73;;;6.70;99.90;;;;;;5054131;28;20075;-70
2022/01/25 10:24:14;;;;;;;43.70;20.67;;;6.70;99.90;;;;;;5053965;28;20025;-71
2022/01/25 10:27:01;;;;;;;41.38;18.80;;;6.70;99.90;;;;;;5054558;28;20466;-73
2022/01/25 10:29:36;;;;;;;40.22;19.98;;;6.80;99.90;;;;;;5053601;28;20032;-70
2022/01/25 10:32:12;;;;;;;42.60;20.33;;;6.90;99.90;;;;;;5054428;28;20029;-71
2022/01/25 10:34:45;;;;;;;42.83;20.48;;;6.90;99.90;;;;;;5054274;28;20131;-71
2022/01/25 10:37:20;;;;;;;40.78;21.35;;;6.90;99.90;;;;;;5054464;28;20147;-72
2022/01/25 10:39:49;;;;;;;45.22;21.55;;;6.90;99.90;;;;;;5054189;28;20032;-71
2022/01/25 10:42:28;;;;;;;48.33;22.55;;;6.90;99.90;;;;;;5054190;28;20029;-69
2022/01/25 10:44:56;;;;;;;42.78;20.75;;;6.80;99.90;;;;;;5054581;28;20112;-68
2022/01/25 10:47:46;;;;;;;45.63;21.85;;;6.80;99.90;;;;;;5053616;28;20028;-70
2022/01/25 10:50:35;;;;;;;44.83;20.45;;;6.90;99.90;;;;;;5053743;28;20041;-70
2022/01/25 10:53:15;;;;;;;45.70;21.73;;;6.90;99.90;;;;;;5054202;28;20025;-71
2022/01/25 10:55:49;;;;;;;46.95;21.50;;;6.90;99.90;;;;;;5053936;28;20063;-68
2022/01/25 10:58:16;;;;;;;47.92;22.73;;;6.90;99.90;;;;;;5054174;28;20036;-68
2022/01/25 11:00:45;;;;;;;42.28;19.95;;;7.00;99.90;;;;;;5053319;28;20029;-71
2022/01/25 11:03:11;;;;;;;41.20;18.63;;;7.00;99.90;;;;;;5053995;28;20044;-69
2022/01/25 11:05:38;;;;;;;43.38;20.40;;;7.00;99.90;;;;;;5052998;28;20459;-71
2022/01/25 11:08:11;;;;;;;44.53;20.90;;;7.00;99.90;;;;;;5053467;28;20017;-68
2022/01/25 11:10:38;;;;;;;47.17;21.48;;;7.00;99.90;;;;;;5054076;28;20079;-68
2022/01/25 11:13:20;;;;;;;47.80;22.35;;;7.00;99.90;;;;;;5053512;28;20044;-70
2022/01/25 11:15:46;;;;;;;46.92;22.15;;;7.00;99.90;;;;;;5053374;28;20371;-72
2022/01/25 11:18:12;;;;;;;45.63;20.98;;;7.00;99.90;;;;;;5053767;28;20028;-72
2022/01/25 11:20:37;;;;;;;34.17;14.32;;;7.00;99.90;;;;;;5053611;28;20040;-69
2022/01/25 11:23:03;;;;;;;34.45;15.10;;;7.00;99.90;;;;;;5053784;28;20029;-70
2022/01/25 11:25:29;;;;;;;35.42;16.45;;;7.00;99.90;;;;;;5053219;28;20182;-71
2022/01/25 11:27:57;;;;;;;37.72;16.33;;;7.00;99.90;;;;;;5053377;28;20036;-70
2022/01/25 11:30:23;;;;;;;39.15;17.15;;;7.00;99.90;;;;;;5053441;28;20025;-70
2022/01/25 11:32:50;;;;;;;39.50;17.00;;;6.90;99.90;;;;;;5053420;28;20025;-69
2022/01/25 11:35:20;;;;;;;32.10;15.32;;;6.90;99.90;;;;;;5053069;28;20111;-70
2022/01/25 11:37:48;;;;;;;37.30;16.40;;;6.90;99.90;;;;;;5053085;28;20143;-69
2022/01/25 11:40:22;;;;;;;38.58;17.17;;;6.90;99.90;;;;;;5052944;28;20029;-69
2022/01/25 11:42:50;;;;;;;46.13;20.67;;;6.90;99.90;;;;;;5053035;28;20039;-69
2022/01/25 11:45:20;;;;;;;48.22;21.25;;;7.00;99.90;;;;;;5053259;28;20029;-71
2022/01/25 11:47:49;;;;;;;51.63;23.95;;;7.10;99.90;;;;;;5052438;28;20104;-71
2022/01/25 11:50:15;;;;;;;50.22;23.08;;;7.10;99.90;;;;;;5053032;28;20041;-72
2022/01/25 11:53:11;;;;;;;49.55;21.13;;;7.10;99.90;;;;;;5052388;28;20033;-70
2022/01/25 11:55:48;;;;;;;53.65;23.10;;;7.20;99.90;;;;;;5050793;28;20053;-72
2022/01/25 11:58:36;;;;;;;49.03;23.27;;;7.20;99.90;;;;;;5052744;28;20056;-72
2022/01/25 12:01:14;;;;;;;50.40;23.42;;;7.20;99.90;;;;;;5052476;28;20083;-70
2022/01/25 12:03:50;;;;;;;46.67;22.20;;;7.30;99.90;;;;;;5053424;28;20033;-72
2022/01/25 12:06:30;;;;;;;45.15;21.00;;;7.30;99.90;;;;;;5052762;28;20074;-68
2022/01/25 12:11:42;;;;;;;41.53;20.55;;;7.30;99.90;;;;;;5052713;28;20037;-70
2022/01/25 12:14:29;;;;;;;46.55;21.92;;;7.30;99.90;;;;;;5052759;28;20033;-69
2022/01/25 12:17:03;;;;;;;48.55;23.00;;;7.40;99.90;;;;;;5052942;28;20086;-71
2022/01/25 12:19:52;;;;;;;48.03;22.98;;;7.40;99.90;;;;;;5052659;28;20025;-72
2022/01/25 12:22:29;;;;;;;46.80;21.30;;;7.50;99.90;;;;;;5052710;28;20475;-69
2022/01/25 12:25:13;;;;;;;43.63;19.10;;;7.50;99.90;;;;;;5052833;28;20032;-70
2022/01/25 12:27:52;;;;;;;45.20;21.95;;;7.50;99.90;;;;;;5052966;28;20074;-72
2022/01/25 12:30:25;;;;;;;49.95;24.17;;;7.40;99.90;;;;;;5052501;28;20039;-71
2022/01/25 12:33:02;;;;;;;49.25;22.98;;;7.40;99.90;;;;;;5052478;28;20033;-71
2022/01/25 12:35:59;;;;;;;54.30;23.25;;;7.40;99.90;;;;;;5052532;28;20056;-72
2022/01/25 12:38:44;;;;;;;45.92;22.20;;;7.30;99.90;;;;;;5045303;28;20064;-69
2022/01/25 12:41:15;;;;;;;47.95;22.15;;;7.30;99.90;;;;;;5051486;28;20021;-71
2022/01/25 12:43:47;;;;;;;47.05;22.23;;;7.30;99.90;;;;;;5065629;28;20119;-71
2022/01/25 12:46:21;;;;;;;50.38;24.73;;;7.40;99.90;;;;;;5052592;28;20433;-71
2022/01/25 12:48:50;;;;;;;47.55;21.95;;;7.40;99.90;;;;;;5032630;28;20049;-70
2022/01/25 12:51:22;;;;;;;50.15;24.02;;;7.40;99.90;;;;;;5051898;28;20021;-70
2022/01/25 12:53:51;;;;;;;60.47;25.27;;;7.40;99.90;;;;;;5052268;28;20021;-68
2022/01/25 12:56:34;;;;;;;49.28;24.10;;;7.40;99.90;;;;;;5052388;28;20029;-70
2022/01/25 12:59:12;;;;;;;53.25;24.45;;;7.40;99.90;;;;;;5034605;28;20028;-71
2022/01/25 13:01:40;;;;;;;53.40;24.05;;;7.40;99.90;;;;;;5052281;28;20075;-71
2022/01/25 13:04:07;;;;;;;56.15;25.27;;;7.40;99.90;;;;;;5052355;28;20025;-70
2022/01/25 13:06:36;;;;;;;50.08;23.33;;;7.50;99.90;;;;;;5052143;28;20079;-72
2022/01/25 13:09:14;;;;;;;45.95;20.95;;;7.50;99.90;;;;;;5051814;28;20496;-70
2022/01/25 13:14:50;;;;;;;47.55;22.45;;;7.40;99.90;;;;;;5051799;28;20072;-72
2022/01/25 13:17:20;;;;;;;44.03;20.48;;;7.40;99.90;;;;;;5051315;28;20410;-72
2022/01/25 13:19:59;;;;;;;46.33;20.27;;;7.40;99.90;;;;;;5054634;28;20098;-72
2022/01/25 13:22:29;;;;;;;47.20;21.67;;;7.30;99.90;;;;;;5055728;28;20355;-72
2022/01/25 13:25:27;;;;;;;45.45;21.60;;;7.30;99.90;;;;;;5056014;28;20375;-71
2022/01/25 13:27:57;;;;;;;48.15;21.88;;;7.20;99.90;;;;;;5055961;28;20040;-70
2022/01/25 13:30:48;;;;;;;43.33;20.42;;;7.20;99.90;;;;;;5055778;28;20047;-71
2022/01/25 13:33:19;;;;;;;44.63;20.88;;;7.20;99.90;;;;;;5056169;28;20044;-71
2022/01/25 13:35:49;;;;;;;47.03;20.90;;;7.20;99.90;;;;;;5055646;28;20493;-71
2022/01/25 13:38:17;;;;;;;44.78;19.83;;;7.30;99.90;;;;;;5055440;28;20040;-69
2022/01/25 13:40:56;;;;;;;43.75;20.52;;;7.30;99.90;;;;;;5069412;28;20028;-72
2022/01/25 13:45:53;;;;;;;46.58;20.90;;;7.30;99.90;;;;;;5075342;28;20162;-70
2022/01/25 13:48:21;;;;;;;45.40;20.92;;;7.30;99.90;;;;;;5056572;28;20040;-72
2022/01/25 13:50:51;;;;;;;49.90;20.35;;;7.30;99.90;;;;;;5055741;28;20052;-70
2022/01/25 13:53:18;;;;;;;50.40;22.88;;;7.30;99.90;;;;;;5055746;28;20025;-72
2022/01/25 13:55:53;;;;;;;45.80;19.70;;;7.20;99.90;;;;;;5055191;28;20032;-73
2022/01/25 13:58:27;;;;;;;48.63;22.83;;;7.20;99.90;;;;;;5034367;28;20470;-72
2022/01/25 14:00:56;;;;;;;45.90;19.92;;;7.20;99.90;;;;;;5067053;28;20544;-73
2022/01/25 14:03:43;;;;;;;47.67;21.45;;;7.20;99.90;;;;;;5066225;28;20040;-69
2022/01/25 14:06:23;;;;;;;47.47;20.70;;;7.20;99.90;;;;;;5054755;28;21564;-71
2022/01/25 14:08:50;;;;;;;46.63;19.35;;;7.20;99.90;;;;;;5061116;28;20030;-70
2022/01/25 14:11:24;;;;;;;42.88;18.35;;;7.10;99.90;;;;;;5059642;28;20029;-73
2022/01/25 14:24:54;;;;;;;44.97;20.15;;;7.00;99.90;;;;;;5054402;28;20051;-69
2022/01/25 14:27:25;;;;;;;51.08;19.77;;;7.00;99.90;;;;;;5064149;28;20051;-69
2022/01/25 14:29:52;;;;;;;43.35;19.35;;;6.90;99.90;;;;;;5053855;28;20402;-69
2022/01/25 14:32:35;;;;;;;44.63;18.55;;;6.90;99.90;;;;;;5054395;28;20352;-70
2022/01/25 14:35:09;;;;;;;46.55;18.73;;;6.90;99.90;;;;;;5058334;28;20498;-70
2022/01/25 14:37:44;;;;;;;42.85;17.85;;;6.90;99.90;;;;;;5054129;28;20021;-70
2022/01/25 14:40:12;;;;;;;41.90;17.40;;;6.90;99.90;;;;;;5054371;28;20025;-70
2022/01/25 14:42:39;;;;;;;42.08;18.88;;;6.90;99.90;;;;;;5054527;28;20075;-70
2022/01/25 14:45:07;;;;;;;44.55;18.63;;;6.90;99.90;;;;;;5040001;28;20478;-70
2022/01/25 14:47:41;;;;;;;43.17;17.23;;;6.90;99.90;;;;;;5054548;28;20112;-69
2022/01/25 14:50:14;;;;;;;54.13;20.73;;;6.90;99.90;;;;;;5054323;28;20383;-70
2022/01/25 14:52:40;;;;;;;43.10;18.20;;;6.90;99.90;;;;;;5055135;28;20502;-72
2022/01/25 14:55:19;;;;;;;40.03;16.85;;;6.80;99.90;;;;;;5054001;28;20072;-70
2022/01/25 14:58:03;;;;;;;39.63;15.70;;;6.80;99.90;;;;;;5054238;28;20107;-69